CYCK

Chatham Kent Airport

Chatham-Kent, Ontario, Canada
METAR CYCK 251840Z AUTO 21014G21KT 9SM SCT007 BKN013 OVC023 22/21 A2995 RMK SLP142 DENSITY ALT 1500FT
Observed Flight Rules
Sep-25 @ 18:40 UTC (23 minutes ago) Marginal Visual Flight Rules
Wind Visibility Clouds
210° at 14 knots
 Gusting to 21 knots
9 miles
  • Scattered at 700' AGL
  • Broken at 1,300' AGL
  • Overcast at 2,300' AGL
Temperatures Readings
Current 22°C / 72°F
Dewpoint 21°C / 70°F
Humidity 94%
Altimeter 29.95" Hg
Pressure 1014.2 hPa
Elevation 198
METAR CYCK 251840Z AUTO 21014G21KT 9SM SCT007 BKN013 OVC023 22/21 A2995 RMK SLP142 DENSITY ALT 1500FT
Observed Flight Rules
Sep-25 @ 18:40 UTC
(23 minutes ago)
MVFR
Wind Visibility
210° at 14 knots
 Gusting to 21 knots
9 miles
Clouds
  • Scattered at 700' AGL
  • Broken at 1,300' AGL
  • Overcast at 2,300' AGL
Temperature Dewpoint
22°C / 72°F 21°C / 70°F
Humidity Altimeter Pressure
94% 29.95" Hg 1014.2 hPa